Grand Hero — 3EKW7 — position and weather

sailwx.info

Track history (hours):
 
Tides and Currents Weather Stations Pressure Air Temp Water Temp Dewpoint Dewpoint Depression Visibility Wind Speed Wind Dir Waves Ship Positions

Grand Hero

Last reported at 2017-Nov-10 17:16 UTC. Time now 2017-Nov-18 10:30 UTC.
Position N 23°31' W 017°05'.

Length 199 m; draft 9.3 m.

Type: Ship. MMSI: 372857000.

Date/timePositionNaut miles runAvg speedWind from/ knotsBaromVisibWave heightAir tempDewpointWater temp
2017-Nov-10 17:16N 23°31' W 017°05'1217.0
2017-Nov-10 16:34N 23°42' W 017°03'117.2
2017-Nov-10 16:30N 23°43' W 017°03'916.8
2017-Nov-10 16:00N 23°52' W 017°02'917.2
2017-Nov-10 15:30N 24°00' W 017°00'917.1
2017-Nov-10 14:59N 24°09' W 016°59'817.1
2017-Nov-10 14:30N 24°17' W 016°57'917.3
2017-Nov-10 13:59N 24°26' W 016°56'817.5
2017-Nov-10 13:30N 24°34' W 016°55'2017.2
2017-Nov-10 12:20N 24°54' W 016°51'716.8
2017-Nov-10 11:57N 25°01' W 016°50'20017.5
2017-Nov-10 00:31N 28°16' W 016°05'217.5
2017-Nov-10 00:25N 28°18' W 016°04'717.6
2017-Nov-10 00:00N 28°23' W 015°58'917.7
2017-Nov-09 23:30N 28°30' W 015°52'917.3
2017-Nov-09 23:00N 28°36' W 015°45'917.3
2017-Nov-09 22:30N 28°45' W 015°43'917.2
2017-Nov-09 22:00N 28°53' W 015°42'  
2017-Nov-06 02:30N 50°26' W 001°26'1020.1
2017-Nov-06 02:00N 50°27' W 001°10'1019.7
2017-Nov-06 01:29N 50°28' W 000°54'918.6
2017-Nov-06 01:00N 50°28' W 000°40'917.3
2017-Nov-06 00:30N 50°29' W 000°27'816.7
2017-Nov-06 00:00N 50°30' W 000°14'816.0
2017-Nov-05 23:30N 50°32' W 000°01'815.4
2017-Nov-05 23:00N 50°34' E 000°10'714.8
2017-Nov-05 22:30N 50°36' E 000°21'714.5
2017-Nov-05 22:00N 50°37' E 000°33'714.5
2017-Nov-05 21:30N 50°40' E 000°43'815.5
2017-Nov-05 21:00N 50°44' E 000°53'816.8
2017-Nov-05 20:30N 50°49' E 001°04'918.0
2017-Nov-05 20:00N 50°54' E 001°17'1019.5
2017-Nov-05 19:30N 51°01' E 001°27'1019.8
2017-Nov-05 19:00N 51°08' E 001°38'918.8
2017-Nov-05 18:30N 51°15' E 001°48'917.6
2017-Nov-05 18:00N 51°22' E 001°56'612.5
2017-Nov-05 17:30N 51°23' E 002°06'815.8
2017-Nov-05 17:00N 51°21' E 002°18'1215.7
2017-Nov-05 16:13N 51°23' E 002°38'412.8
2017-Nov-05 15:56N 51°23' E 002°43'511.3
2017-Nov-05 15:31N 51°24' E 002°51'714.7
2017-Nov-05 15:01N 51°24' E 003°03'612.8
2017-Nov-05 14:30N 51°21' E 003°12'2 2.9
2017-Nov-05 13:58N 51°20' E 003°13'0 0.1
2017-Nov-05 13:30N 51°20' E 003°13'1 2.0
2017-Nov-05 12:58N 51°19' E 003°14'0 0.0
2017-Nov-05 12:28N 51°19' E 003°14'0 0.0
2017-Nov-05 11:58N 51°19' E 003°14'0 0.0
2017-Nov-05 11:28N 51°19' E 003°14'0 0.0
2017-Nov-05 10:58N 51°19' E 003°14'0 0.0
2017-Nov-05 10:28N 51°19' E 003°14'0 0.0
2017-Nov-05 09:58N 51°19' E 003°14'0 0.0
2017-Nov-05 09:28N 51°19' E 003°14'0 0.0
2017-Nov-05 08:58N 51°19' E 003°14'0 0.0
2017-Nov-05 08:28N 51°19' E 003°14'0 0.0
2017-Nov-05 07:58N 51°19' E 003°14'0 0.0
2017-Nov-05 07:28N 51°19' E 003°14'0 0.0
2017-Nov-05 06:58N 51°19' E 003°14'0 0.0
2017-Nov-05 06:28N 51°19' E 003°14'0 0.0
2017-Nov-05 05:58N 51°19' E 003°14'0 0.0
2017-Nov-05 05:28N 51°19' E 003°14'0 0.0
2017-Nov-05 04:58N 51°19' E 003°14'0 0.0
2017-Nov-05 04:28N 51°19' E 003°14'0 0.0
2017-Nov-05 03:55N 51°19' E 003°14'0 0.0
2017-Nov-05 03:28N 51°19' E 003°14'0 0.0
2017-Nov-05 02:58N 51°19' E 003°14'0 0.0
2017-Nov-05 02:28N 51°19' E 003°14'0 0.0
2017-Nov-05 01:58N 51°19' E 003°14'0 0.0
2017-Nov-05 01:28N 51°19' E 003°14'0 0.0
2017-Nov-05 00:58N 51°19' E 003°14'0 0.0
2017-Nov-05 00:28N 51°19' E 003°14'0 0.0
2017-Nov-04 23:58N 51°19' E 003°14'0 0.0
2017-Nov-04 23:28N 51°19' E 003°14'0 0.0
2017-Nov-04 22:58N 51°19' E 003°14'0 0.0
2017-Nov-04 22:28N 51°19' E 003°14'0 0.0
2017-Nov-04 21:58N 51°19' E 003°14'0 0.0
2017-Nov-04 21:28N 51°19' E 003°14'0 0.0
2017-Nov-04 20:58N 51°19' E 003°14'0 0.0
2017-Nov-04 20:28N 51°19' E 003°14'0 0.0
2017-Nov-04 19:58N 51°19' E 003°14'0 0.0
2017-Nov-04 19:28N 51°19' E 003°14'0 0.0
2017-Nov-04 18:58N 51°19' E 003°14'0 0.0
2017-Nov-04 18:28N 51°19' E 003°14'0 0.0
2017-Nov-04 17:58N 51°19' E 003°14'0 0.0
2017-Nov-04 17:28N 51°19' E 003°14'0 0.0
2017-Nov-04 16:58N 51°19' E 003°14'0 0.0
2017-Nov-04 16:28N 51°19' E 003°14'0 0.0
2017-Nov-04 15:58N 51°19' E 003°14'0 0.0
2017-Nov-04 15:28N 51°19' E 003°14'0 0.0
2017-Nov-04 14:58N 51°19' E 003°14'0 0.0
2017-Nov-04 14:28N 51°19' E 003°14'0 0.7
2017-Nov-04 14:00N 51°19' E 003°13'1 1.4
2017-Nov-04 13:28N 51°20' E 003°13'0 0.0
2017-Nov-04 13:00N 51°20' E 003°13'2 3.4
2017-Nov-04 12:30N 51°22' E 003°12'611.3
2017-Nov-04 12:00N 51°24' E 003°04'816.6
2017-Nov-04 11:30N 51°22' E 002°51'713.0
2017-Nov-04 10:56N 51°22' E 002°39'410.1
2017-Nov-04 10:29N 51°22' E 002°32'613.1
2017-Nov-04 10:00N 51°29' E 002°34'918.2
2017-Nov-04 09:30N 51°37' E 002°39'5217.4
2017-Nov-04 06:31N 52°25' E 003°13'1717.6
2017-Nov-04 05:33N 52°39' E 003°29'116.7
2017-Nov-04 05:29N 52°39' E 003°30'816.7
2017-Nov-04 05:00N 52°45' E 003°39'816.4
2017-Nov-04 04:30N 52°52' E 003°48'816.2
2017-Nov-04 04:00N 52°57' E 003°58'815.8
2017-Nov-04 03:29N 53°03' E 004°08'915.8
2017-Nov-04 02:53N 53°09' E 004°19'815.7
2017-Nov-04 02:21N 53°16' E 004°27'716.7
2017-Nov-04 01:55N 53°23' E 004°31'716.8
2017-Nov-04 01:31N 53°29' E 004°37'917.9
2017-Nov-04 01:00N 53°33' E 004°51'918.1
2017-Nov-04 00:30N 53°36' E 005°05'918.1
2017-Nov-03 23:59N 53°39' E 005°20'917.9
2017-Nov-03 23:29N 53°42' E 005°34'2517.2
2017-Nov-03 22:01N 53°48' E 006°15'216.8
2017-Nov-03 21:54N 53°49' E 006°19'616.3
2017-Nov-03 21:30N 53°50' E 006°29'2715.9
2017-Nov-03 19:49N 53°57' E 007°13'615.1
2017-Nov-03 19:25N 53°58' E 007°23'1512.9
2017-Nov-03 18:18N 53°53' E 007°46'311.8
2017-Nov-03 18:01N 53°52' E 007°52'612.1
2017-Nov-03 17:31N 53°51' E 008°02'815.9
2017-Nov-03 17:00N 53°45' E 008°12'817.0
2017-Nov-03 16:30N 53°40' E 008°23'714.6
2017-Nov-03 16:00N 53°35' E 008°32'1 2.4
2017-Nov-03 15:29N 53°34' E 008°33'0 0.9
2017-Nov-03 15:00N 53°35' E 008°33'0 0.1
2017-Nov-03 14:29N 53°35' E 008°33'0 0.0
2017-Nov-03 13:59N 53°35' E 008°33'0 0.0
2017-Nov-03 13:29N 53°35' E 008°33'0 0.0
2017-Nov-03 12:59N 53°35' E 008°33'0 0.0
2017-Nov-03 12:29N 53°35' E 008°33'0 0.0
2017-Nov-03 11:59N 53°35' E 008°33'0 0.0
2017-Nov-03 11:29N 53°35' E 008°33'0 0.0
2017-Nov-03 10:59N 53°35' E 008°33'0 0.0
2017-Nov-03 10:29N 53°35' E 008°33'0 0.0
2017-Nov-03 09:59N 53°35' E 008°33'0 0.0
2017-Nov-03 09:29N 53°35' E 008°33'0 0.0
2017-Nov-03 08:59N 53°35' E 008°33'0 0.0
2017-Nov-03 08:29N 53°35' E 008°33'0 0.0
2017-Nov-03 07:59N 53°35' E 008°33'0 0.0
2017-Nov-03 07:29N 53°35' E 008°33'0 0.0
2017-Nov-03 06:59N 53°35' E 008°33'0 0.0
2017-Nov-03 06:29N 53°35' E 008°33'0 0.0
2017-Nov-03 05:59N 53°35' E 008°33'0 0.0
2017-Nov-03 05:29N 53°35' E 008°33'0 0.0
2017-Nov-03 04:59N 53°35' E 008°33'0 0.0
2017-Nov-03 04:29N 53°35' E 008°33'0 0.0
2017-Nov-03 03:59N 53°35' E 008°33'0 0.0
2017-Nov-03 03:29N 53°35' E 008°33'0 0.0
2017-Nov-03 02:59N 53°35' E 008°33'0 0.0
2017-Nov-03 02:29N 53°35' E 008°33'0 0.0
2017-Nov-03 01:59N 53°35' E 008°33'0 0.0
2017-Nov-03 01:29N 53°35' E 008°33'0 0.0
2017-Nov-03 00:59N 53°35' E 008°33'0 0.0
2017-Nov-03 00:29N 53°35' E 008°33'0 0.0
2017-Nov-02 23:59N 53°35' E 008°33'0 0.0
2017-Nov-02 23:29N 53°35' E 008°33'0 0.0
2017-Nov-02 22:59N 53°35' E 008°33'0 0.0
2017-Nov-02 22:29N 53°35' E 008°33'0 0.0
2017-Nov-02 21:59N 53°35' E 008°33'0 0.0
2017-Nov-02 21:29N 53°35' E 008°33'0 0.0
2017-Nov-02 20:59N 53°35' E 008°33'0 0.0
2017-Nov-02 20:29N 53°35' E 008°33'0 0.0
2017-Nov-02 19:59N 53°35' E 008°33'0 0.0
2017-Nov-02 19:29N 53°35' E 008°33'0 0.0
2017-Nov-02 18:59N 53°35' E 008°33'0 0.0
2017-Nov-02 18:29N 53°35' E 008°33'0 0.0
2017-Nov-02 17:59N 53°35' E 008°33'0 0.0
2017-Nov-02 17:29N 53°35' E 008°33'0 0.0
2017-Nov-02 16:59N 53°35' E 008°33'0 0.0
2017-Nov-02 16:29N 53°35' E 008°33'0 0.0
2017-Nov-02 15:59N 53°35' E 008°33'0 0.0
2017-Nov-02 15:29N 53°35' E 008°33'0 0.0
2017-Nov-02 14:59N 53°35' E 008°33'0 0.0
2017-Nov-02 14:29N 53°35' E 008°33'0 0.0
2017-Nov-02 13:59N 53°35' E 008°33'0 0.0
2017-Nov-02 13:29N 53°35' E 008°33'0 0.0
2017-Nov-02 12:59N 53°35' E 008°33'0 0.0
2017-Nov-02 12:29N 53°35' E 008°33'0 0.0
2017-Nov-02 11:59N 53°35' E 008°33'0 0.0
2017-Nov-02 11:29N 53°35' E 008°33'0 0.0
2017-Nov-02 10:59N 53°35' E 008°33'0 0.0
2017-Nov-02 10:29N 53°35' E 008°33'0 0.0
2017-Nov-02 09:59N 53°35' E 008°33'0 0.0
2017-Nov-02 09:29N 53°35' E 008°33'0 0.0
2017-Nov-02 08:56N 53°35' E 008°33'0 0.0
2017-Nov-02 08:29N 53°35' E 008°33'0 0.0
2017-Nov-02 07:59N 53°35' E 008°33'0 0.0
2017-Nov-02 07:29N 53°35' E 008°33'0 0.0
2017-Nov-02 06:59N 53°35' E 008°33'0 0.0
2017-Nov-02 06:29N 53°35' E 008°33'0 0.0
2017-Nov-02 05:59N 53°35' E 008°33'0 0.0
2017-Nov-02 05:29N 53°35' E 008°33'0 0.0
2017-Nov-02 04:59N 53°35' E 008°33'0 0.0
2017-Nov-02 04:31N 53°35' E 008°33'0 0.9
2017-Nov-02 04:00N 53°34' E 008°33'0 0.4
2017-Nov-02 03:30N 53°34' E 008°33'1 2.8
2017-Nov-02 03:01N 53°35' E 008°32'4 8.9
2017-Nov-02 02:31N 53°38' E 008°26'611.8
2017-Nov-02 02:00N 53°42' E 008°19'714.0
2017-Nov-02 01:30N 53°47' E 008°10'713.9
2017-Nov-02 01:00N 53°51' E 008°01'611.2
2017-Nov-02 00:30N 53°52' E 007°51'611.2
2017-Nov-02 00:00N 53°53' E 007°42'5 9.7
2017-Nov-01 23:30N 53°54' E 007°34'5 8.6
2017-Nov-01 22:55N 53°53' E 007°25'4415.8
2017-Nov-01 20:09N 53°43' E 006°13'216.7
2017-Nov-01 20:01N 53°42' E 006°10'816.8
2017-Nov-01 19:30N 53°40' E 005°56'916.8
2017-Nov-01 18:59N 53°37' E 005°42'816.9
2017-Nov-01 18:30N 53°35' E 005°29'159 9.6
2017-Nov-01 01:59N 51°19' E 003°14'0 0.0
2017-Nov-01 01:29N 51°19' E 003°14'0 0.0
2017-Nov-01 01:00N 51°19' E 003°13'1 1.9
2017-Nov-01 00:30N 51°20' E 003°13'0 0.0
2017-Nov-01 00:00N 51°20' E 003°13'0 0.0
2017-Oct-31 23:30N 51°20' E 003°13'2 3.4
2017-Oct-31 23:00N 51°21' E 003°12'4 8.6
2017-Oct-31 22:31N 51°25' E 003°16'714.2
2017-Oct-31 22:00N 51°25' E 003°28'510.2
2017-Oct-31 21:31N 51°26' E 003°36'4 7.1
2017-Oct-31 21:01N 51°26' E 003°41'612.6
2017-Oct-31 20:30N 51°21' E 003°48'612.2
2017-Oct-31 20:00N 51°24' E 003°57'3 6.5
2017-Oct-31 19:31N 51°24' E 004°02'510.3
2017-Oct-31 19:00N 51°24' E 004°11'4 7.6
2017-Oct-31 18:30N 51°21' E 004°15'4 8.0
2017-Oct-31 18:01N 51°17' E 004°15'0 0.8
2017-Oct-31 17:27N 51°17' E 004°15'  
Track history (hours):
 
Tides and Currents Weather Stations Pressure Air Temp Water Temp Dewpoint Dewpoint Depression Visibility Wind Speed Wind Dir Waves Ship Positions

Grand Hero

Last reported at 2017-Nov-10 17:16 UTC. Time now 2017-Nov-18 10:30 UTC.
Position N 23°31' W 017°05'.

Length 199 m; draft 9.3 m.

Type: Ship. MMSI: 372857000.

Date/timePositionNaut miles runAvg speedWind from/ knotsBaromVisibWave heightAir tempDewpointWater temp
2017-Nov-10 17:16N 23°31' W 017°05'1217.0
2017-Nov-10 16:34N 23°42' W 017°03'117.2
2017-Nov-10 16:30N 23°43' W 017°03'916.8
2017-Nov-10 16:00N 23°52' W 017°02'917.2
2017-Nov-10 15:30N 24°00' W 017°00'917.1
2017-Nov-10 14:59N 24°09' W 016°59'817.1
2017-Nov-10 14:30N 24°17' W 016°57'917.3
2017-Nov-10 13:59N 24°26' W 016°56'817.5
2017-Nov-10 13:30N 24°34' W 016°55'2017.2
2017-Nov-10 12:20N 24°54' W 016°51'716.8
2017-Nov-10 11:57N 25°01' W 016°50'20017.5
2017-Nov-10 00:31N 28°16' W 016°05'217.5
2017-Nov-10 00:25N 28°18' W 016°04'717.6
2017-Nov-10 00:00N 28°23' W 015°58'917.7
2017-Nov-09 23:30N 28°30' W 015°52'917.3
2017-Nov-09 23:00N 28°36' W 015°45'917.3
2017-Nov-09 22:30N 28°45' W 015°43'917.2
2017-Nov-09 22:00N 28°53' W 015°42'  
2017-Nov-06 02:30N 50°26' W 001°26'1020.1
2017-Nov-06 02:00N 50°27' W 001°10'1019.7
2017-Nov-06 01:29N 50°28' W 000°54'918.6
2017-Nov-06 01:00N 50°28' W 000°40'917.3
2017-Nov-06 00:30N 50°29' W 000°27'816.7
2017-Nov-06 00:00N 50°30' W 000°14'816.0
2017-Nov-05 23:30N 50°32' W 000°01'815.4
2017-Nov-05 23:00N 50°34' E 000°10'714.8
2017-Nov-05 22:30N 50°36' E 000°21'714.5
2017-Nov-05 22:00N 50°37' E 000°33'714.5
2017-Nov-05 21:30N 50°40' E 000°43'815.5
2017-Nov-05 21:00N 50°44' E 000°53'816.8
2017-Nov-05 20:30N 50°49' E 001°04'918.0
2017-Nov-05 20:00N 50°54' E 001°17'1019.5
2017-Nov-05 19:30N 51°01' E 001°27'1019.8
2017-Nov-05 19:00N 51°08' E 001°38'918.8
2017-Nov-05 18:30N 51°15' E 001°48'917.6
2017-Nov-05 18:00N 51°22' E 001°56'612.5
2017-Nov-05 17:30N 51°23' E 002°06'815.8
2017-Nov-05 17:00N 51°21' E 002°18'1215.7
2017-Nov-05 16:13N 51°23' E 002°38'412.8
2017-Nov-05 15:56N 51°23' E 002°43'511.3
2017-Nov-05 15:31N 51°24' E 002°51'714.7
2017-Nov-05 15:01N 51°24' E 003°03'612.8
2017-Nov-05 14:30N 51°21' E 003°12'2 2.9
2017-Nov-05 13:58N 51°20' E 003°13'0 0.1
2017-Nov-05 13:30N 51°20' E 003°13'1 2.0
2017-Nov-05 12:58N 51°19' E 003°14'0 0.0
2017-Nov-05 12:28N 51°19' E 003°14'0 0.0
2017-Nov-05 11:58N 51°19' E 003°14'0 0.0
2017-Nov-05 11:28N 51°19' E 003°14'0 0.0
2017-Nov-05 10:58N 51°19' E 003°14'0 0.0
2017-Nov-05 10:28N 51°19' E 003°14'0 0.0
2017-Nov-05 09:58N 51°19' E 003°14'0 0.0
2017-Nov-05 09:28N 51°19' E 003°14'0 0.0
2017-Nov-05 08:58N 51°19' E 003°14'0 0.0
2017-Nov-05 08:28N 51°19' E 003°14'0 0.0
2017-Nov-05 07:58N 51°19' E 003°14'0 0.0
2017-Nov-05 07:28N 51°19' E 003°14'0 0.0
2017-Nov-05 06:58N 51°19' E 003°14'0 0.0
2017-Nov-05 06:28N 51°19' E 003°14'0 0.0
2017-Nov-05 05:58N 51°19' E 003°14'0 0.0
2017-Nov-05 05:28N 51°19' E 003°14'0 0.0
2017-Nov-05 04:58N 51°19' E 003°14'0 0.0
2017-Nov-05 04:28N 51°19' E 003°14'0 0.0
2017-Nov-05 03:55N 51°19' E 003°14'0 0.0
2017-Nov-05 03:28N 51°19' E 003°14'0 0.0
2017-Nov-05 02:58N 51°19' E 003°14'0 0.0
2017-Nov-05 02:28N 51°19' E 003°14'0 0.0
2017-Nov-05 01:58N 51°19' E 003°14'0 0.0
2017-Nov-05 01:28N 51°19' E 003°14'0 0.0
2017-Nov-05 00:58N 51°19' E 003°14'0 0.0
2017-Nov-05 00:28N 51°19' E 003°14'0 0.0
2017-Nov-04 23:58N 51°19' E 003°14'0 0.0
2017-Nov-04 23:28N 51°19' E 003°14'0 0.0
2017-Nov-04 22:58N 51°19' E 003°14'0 0.0
2017-Nov-04 22:28N 51°19' E 003°14'0 0.0
2017-Nov-04 21:58N 51°19' E 003°14'0 0.0
2017-Nov-04 21:28N 51°19' E 003°14'0 0.0
2017-Nov-04 20:58N 51°19' E 003°14'0 0.0
2017-Nov-04 20:28N 51°19' E 003°14'0 0.0
2017-Nov-04 19:58N 51°19' E 003°14'0 0.0
2017-Nov-04 19:28N 51°19' E 003°14'0 0.0
2017-Nov-04 18:58N 51°19' E 003°14'0 0.0
2017-Nov-04 18:28N 51°19' E 003°14'0 0.0
2017-Nov-04 17:58N 51°19' E 003°14'0 0.0
2017-Nov-04 17:28N 51°19' E 003°14'0 0.0
2017-Nov-04 16:58N 51°19' E 003°14'0 0.0
2017-Nov-04 16:28N 51°19' E 003°14'0 0.0
2017-Nov-04 15:58N 51°19' E 003°14'0 0.0
2017-Nov-04 15:28N 51°19' E 003°14'0 0.0
2017-Nov-04 14:58N 51°19' E 003°14'0 0.0
2017-Nov-04 14:28N 51°19' E 003°14'0 0.7
2017-Nov-04 14:00N 51°19' E 003°13'1 1.4
2017-Nov-04 13:28N 51°20' E 003°13'0 0.0
2017-Nov-04 13:00N 51°20' E 003°13'2 3.4
2017-Nov-04 12:30N 51°22' E 003°12'611.3
2017-Nov-04 12:00N 51°24' E 003°04'816.6
2017-Nov-04 11:30N 51°22' E 002°51'713.0
2017-Nov-04 10:56N 51°22' E 002°39'410.1
2017-Nov-04 10:29N 51°22' E 002°32'613.1
2017-Nov-04 10:00N 51°29' E 002°34'918.2
2017-Nov-04 09:30N 51°37' E 002°39'5217.4
2017-Nov-04 06:31N 52°25' E 003°13'1717.6
2017-Nov-04 05:33N 52°39' E 003°29'116.7
2017-Nov-04 05:29N 52°39' E 003°30'816.7
2017-Nov-04 05:00N 52°45' E 003°39'816.4
2017-Nov-04 04:30N 52°52' E 003°48'816.2
2017-Nov-04 04:00N 52°57' E 003°58'815.8
2017-Nov-04 03:29N 53°03' E 004°08'915.8
2017-Nov-04 02:53N 53°09' E 004°19'815.7
2017-Nov-04 02:21N 53°16' E 004°27'716.7
2017-Nov-04 01:55N 53°23' E 004°31'716.8
2017-Nov-04 01:31N 53°29' E 004°37'917.9
2017-Nov-04 01:00N 53°33' E 004°51'918.1
2017-Nov-04 00:30N 53°36' E 005°05'918.1
2017-Nov-03 23:59N 53°39' E 005°20'917.9
2017-Nov-03 23:29N 53°42' E 005°34'2517.2
2017-Nov-03 22:01N 53°48' E 006°15'216.8
2017-Nov-03 21:54N 53°49' E 006°19'616.3
2017-Nov-03 21:30N 53°50' E 006°29'2715.9
2017-Nov-03 19:49N 53°57' E 007°13'615.1
2017-Nov-03 19:25N 53°58' E 007°23'1512.9
2017-Nov-03 18:18N 53°53' E 007°46'311.8
2017-Nov-03 18:01N 53°52' E 007°52'612.1
2017-Nov-03 17:31N 53°51' E 008°02'815.9
2017-Nov-03 17:00N 53°45' E 008°12'817.0
2017-Nov-03 16:30N 53°40' E 008°23'714.6
2017-Nov-03 16:00N 53°35' E 008°32'1 2.4
2017-Nov-03 15:29N 53°34' E 008°33'0 0.9
2017-Nov-03 15:00N 53°35' E 008°33'0 0.1
2017-Nov-03 14:29N 53°35' E 008°33'0 0.0
2017-Nov-03 13:59N 53°35' E 008°33'0 0.0
2017-Nov-03 13:29N 53°35' E 008°33'0 0.0
2017-Nov-03 12:59N 53°35' E 008°33'0 0.0
2017-Nov-03 12:29N 53°35' E 008°33'0 0.0
2017-Nov-03 11:59N 53°35' E 008°33'0 0.0
2017-Nov-03 11:29N 53°35' E 008°33'0 0.0
2017-Nov-03 10:59N 53°35' E 008°33'0 0.0
2017-Nov-03 10:29N 53°35' E 008°33'0 0.0
2017-Nov-03 09:59N 53°35' E 008°33'0 0.0
2017-Nov-03 09:29N 53°35' E 008°33'0 0.0
2017-Nov-03 08:59N 53°35' E 008°33'0 0.0
2017-Nov-03 08:29N 53°35' E 008°33'0 0.0
2017-Nov-03 07:59N 53°35' E 008°33'0 0.0
2017-Nov-03 07:29N 53°35' E 008°33'0 0.0
2017-Nov-03 06:59N 53°35' E 008°33'0 0.0
2017-Nov-03 06:29N 53°35' E 008°33'0 0.0
2017-Nov-03 05:59N 53°35' E 008°33'0 0.0
2017-Nov-03 05:29N 53°35' E 008°33'0 0.0
2017-Nov-03 04:59N 53°35' E 008°33'0 0.0
2017-Nov-03 04:29N 53°35' E 008°33'0 0.0
2017-Nov-03 03:59N 53°35' E 008°33'0 0.0
2017-Nov-03 03:29N 53°35' E 008°33'0 0.0
2017-Nov-03 02:59N 53°35' E 008°33'0 0.0
2017-Nov-03 02:29N 53°35' E 008°33'0 0.0
2017-Nov-03 01:59N 53°35' E 008°33'0 0.0
2017-Nov-03 01:29N 53°35' E 008°33'0 0.0
2017-Nov-03 00:59N 53°35' E 008°33'0 0.0
2017-Nov-03 00:29N 53°35' E 008°33'0 0.0
2017-Nov-02 23:59N 53°35' E 008°33'0 0.0
2017-Nov-02 23:29N 53°35' E 008°33'0 0.0
2017-Nov-02 22:59N 53°35' E 008°33'0 0.0
2017-Nov-02 22:29N 53°35' E 008°33'0 0.0
2017-Nov-02 21:59N 53°35' E 008°33'0 0.0
2017-Nov-02 21:29N 53°35' E 008°33'0 0.0
2017-Nov-02 20:59N 53°35' E 008°33'0 0.0
2017-Nov-02 20:29N 53°35' E 008°33'0 0.0
2017-Nov-02 19:59N 53°35' E 008°33'0 0.0
2017-Nov-02 19:29N 53°35' E 008°33'0 0.0
2017-Nov-02 18:59N 53°35' E 008°33'0 0.0
2017-Nov-02 18:29N 53°35' E 008°33'0 0.0
2017-Nov-02 17:59N 53°35' E 008°33'0 0.0
2017-Nov-02 17:29N 53°35' E 008°33'0 0.0
2017-Nov-02 16:59N 53°35' E 008°33'0 0.0
2017-Nov-02 16:29N 53°35' E 008°33'0 0.0
2017-Nov-02 15:59N 53°35' E 008°33'0 0.0
2017-Nov-02 15:29N 53°35' E 008°33'0 0.0
2017-Nov-02 14:59N 53°35' E 008°33'0 0.0
2017-Nov-02 14:29N 53°35' E 008°33'0 0.0
2017-Nov-02 13:59N 53°35' E 008°33'0 0.0
2017-Nov-02 13:29N 53°35' E 008°33'0 0.0
2017-Nov-02 12:59N 53°35' E 008°33'0 0.0
2017-Nov-02 12:29N 53°35' E 008°33'0 0.0
2017-Nov-02 11:59N 53°35' E 008°33'0 0.0
2017-Nov-02 11:29N 53°35' E 008°33'0 0.0
2017-Nov-02 10:59N 53°35' E 008°33'0 0.0
2017-Nov-02 10:29N 53°35' E 008°33'0 0.0
2017-Nov-02 09:59N 53°35' E 008°33'0 0.0
2017-Nov-02 09:29N 53°35' E 008°33'0 0.0
2017-Nov-02 08:56N 53°35' E 008°33'0 0.0
2017-Nov-02 08:29N 53°35' E 008°33'0 0.0
2017-Nov-02 07:59N 53°35' E 008°33'0 0.0
2017-Nov-02 07:29N 53°35' E 008°33'0 0.0
2017-Nov-02 06:59N 53°35' E 008°33'0 0.0
2017-Nov-02 06:29N 53°35' E 008°33'0 0.0
2017-Nov-02 05:59N 53°35' E 008°33'0 0.0
2017-Nov-02 05:29N 53°35' E 008°33'0 0.0
2017-Nov-02 04:59N 53°35' E 008°33'0 0.0
2017-Nov-02 04:31N 53°35' E 008°33'0 0.9
2017-Nov-02 04:00N 53°34' E 008°33'0 0.4
2017-Nov-02 03:30N 53°34' E 008°33'1 2.8
2017-Nov-02 03:01N 53°35' E 008°32'4 8.9
2017-Nov-02 02:31N 53°38' E 008°26'611.8
2017-Nov-02 02:00N 53°42' E 008°19'714.0
2017-Nov-02 01:30N 53°47' E 008°10'713.9
2017-Nov-02 01:00N 53°51' E 008°01'611.2
2017-Nov-02 00:30N 53°52' E 007°51'611.2
2017-Nov-02 00:00N 53°53' E 007°42'5 9.7
2017-Nov-01 23:30N 53°54' E 007°34'5 8.6
2017-Nov-01 22:55N 53°53' E 007°25'4415.8
2017-Nov-01 20:09N 53°43' E 006°13'216.7
2017-Nov-01 20:01N 53°42' E 006°10'816.8
2017-Nov-01 19:30N 53°40' E 005°56'916.8
2017-Nov-01 18:59N 53°37' E 005°42'816.9
2017-Nov-01 18:30N 53°35' E 005°29'159 9.6
2017-Nov-01 01:59N 51°19' E 003°14'0 0.0
2017-Nov-01 01:29N 51°19' E 003°14'0 0.0
2017-Nov-01 01:00N 51°19' E 003°13'1 1.9
2017-Nov-01 00:30N 51°20' E 003°13'0 0.0
2017-Nov-01 00:00N 51°20' E 003°13'0 0.0
2017-Oct-31 23:30N 51°20' E 003°13'2 3.4
2017-Oct-31 23:00N 51°21' E 003°12'4 8.6
2017-Oct-31 22:31N 51°25' E 003°16'714.2
2017-Oct-31 22:00N 51°25' E 003°28'510.2
2017-Oct-31 21:31N 51°26' E 003°36'4 7.1
2017-Oct-31 21:01N 51°26' E 003°41'612.6
2017-Oct-31 20:30N 51°21' E 003°48'612.2
2017-Oct-31 20:00N 51°24' E 003°57'3 6.5
2017-Oct-31 19:31N 51°24' E 004°02'510.3
2017-Oct-31 19:00N 51°24' E 004°11'4 7.6
2017-Oct-31 18:30N 51°21' E 004°15'4 8.0
2017-Oct-31 18:01N 51°17' E 004°15'0 0.8
2017-Oct-31 17:27N 51°17' E 004°15'  

Dump ship's entire track history